Time,TemperatureF,DewpointF,PressureIn,WindDirection,WindDirectionDegrees,WindSpeedMPH,WindSpeedGustMPH,Humidity,HourlyPrecipIn,Conditions,Clouds,dailyrainin,SoftwareType,DateUTC
2013-08-06 00:01:00,73.0,69.0,30.11,North,360,0.0,1.0,86,0.00,,,0.00,,2013-08-06 04:01:00,
2013-08-06 00:11:00,73.0,68.0,30.11,North,360,0.0,1.0,85,0.00,,,0.00,,2013-08-06 04:11:00,
2013-08-06 00:33:00,73.0,68.0,30.11,ESE,119,0.0,5.0,84,0.00,,,0.00,,2013-08-06 04:33:00,
2013-08-06 00:44:00,73.0,68.0,30.11,NNE,13,0.0,1.0,84,0.00,,,0.00,,2013-08-06 04:44:00,
2013-08-06 00:53:00,74.0,69.0,30.11,North,9,0.0,1.0,84,0.00,,,0.00,,2013-08-06 04:53:00,
2013-08-06 01:02:00,74.0,69.0,30.10,NNE,17,0.0,0.0,84,0.00,,,0.00,,2013-08-06 05:02:00,
2013-08-06 01:11:00,73.0,68.0,30.10,NE,34,0.0,1.0,84,0.00,,,0.00,,2013-08-06 05:11:00,
2013-08-06 01:43:00,73.0,69.0,30.12,NE,34,0.0,0.0,87,0.00,,,0.00,,2013-08-06 05:43:00,
2013-08-06 01:53:00,73.0,69.0,30.12,NE,34,0.0,0.0,88,0.00,,,0.00,,2013-08-06 05:53:00,
2013-08-06 02:11:00,71.0,67.0,30.13,East,98,0.0,3.0,88,0.02,,,0.02,,2013-08-06 06:11:00,
2013-08-06 02:22:00,71.0,68.0,30.12,SW,224,0.0,2.0,90,0.03,,,0.03,,2013-08-06 06:22:00,
2013-08-06 02:32:00,70.0,67.0,30.12,SW,226,0.0,1.0,90,0.03,,,0.03,,2013-08-06 06:32:00,
2013-08-06 02:43:00,70.0,67.0,30.12,SW,226,0.0,0.0,91,0.03,,,0.03,,2013-08-06 06:43:00,
2013-08-06 02:52:00,70.0,67.0,30.12,SW,227,0.0,0.0,91,0.03,,,0.03,,2013-08-06 06:52:00,
2013-08-06 03:01:00,70.0,68.0,30.11,SW,226,0.0,0.0,92,0.03,,,0.03,,2013-08-06 07:01:00,
2013-08-06 03:12:00,69.0,67.0,30.11,SW,227,0.0,0.0,92,0.01,,,0.03,,2013-08-06 07:12:00,
2013-08-06 03:22:00,69.0,67.0,30.10,SW,227,0.0,0.0,92,0.00,,,0.03,,2013-08-06 07:22:00,
2013-08-06 03:32:00,69.0,67.0,30.11,SW,227,0.0,0.0,92,0.00,,,0.03,,2013-08-06 07:32:00,
2013-08-06 03:43:00,69.0,67.0,30.11,SW,227,0.0,0.0,93,0.00,,,0.03,,2013-08-06 07:43:00,
2013-08-06 03:53:00,69.0,67.0,30.11,SW,227,0.0,0.0,93,0.00,,,0.03,,2013-08-06 07:53:00,
2013-08-06 04:02:00,69.0,67.0,30.10,SW,227,0.0,0.0,93,0.00,,,0.03,,2013-08-06 08:02:00,
2013-08-06 04:11:00,69.0,67.0,30.09,SW,227,0.0,0.0,93,0.00,,,0.03,,2013-08-06 08:11:00,
2013-08-06 04:22:00,69.0,67.0,30.10,SW,227,0.0,0.0,94,0.00,,,0.03,,2013-08-06 08:22:00,
2013-08-06 04:33:00,69.0,67.0,30.10,SW,227,0.0,0.0,94,0.00,,,0.03,,2013-08-06 08:33:00,
2013-08-06 04:43:00,69.0,67.0,30.11,SW,227,0.0,0.0,94,0.00,,,0.03,,2013-08-06 08:43:00,
2013-08-06 04:52:00,69.0,67.0,30.11,SW,227,0.0,0.0,94,0.00,,,0.03,,2013-08-06 08:52:00,
2013-08-06 05:01:00,69.0,67.0,30.10,SW,226,0.0,0.0,94,0.00,,,0.03,,2013-08-06 09:01:00,
2013-08-06 05:11:00,69.0,67.0,30.11,SW,227,0.0,0.0,94,0.01,,,0.04,,2013-08-06 09:11:00,
2013-08-06 05:22:00,69.0,67.0,30.12,SW,227,0.0,0.0,94,0.02,,,0.05,,2013-08-06 09:22:00,
2013-08-06 05:32:00,68.0,66.0,30.13,ENE,65,0.0,2.0,93,0.05,,,0.08,,2013-08-06 09:32:00,
2013-08-06 05:43:00,67.0,65.0,30.12,SSW,213,0.0,2.0,93,0.23,,,0.26,,2013-08-06 09:43:00,
2013-08-06 05:52:00,66.0,64.0,30.12,NW,314,0.0,5.0,93,0.29,,,0.32,,2013-08-06 09:52:00,
2013-08-06 06:12:00,67.0,65.0,30.12,WSW,240,0.0,2.0,94,0.38,,,0.41,,2013-08-06 10:12:00,
2013-08-06 06:22:00,66.0,65.0,30.12,WSW,239,0.0,2.0,95,0.53,,,0.58,,2013-08-06 10:22:00,
2013-08-06 06:32:00,66.0,65.0,30.12,South,184,0.0,2.0,95,0.55,,,0.62,,2013-08-06 10:32:00,
2013-08-06 06:43:00,67.0,66.0,30.12,South,184,0.0,1.0,95,0.36,,,0.62,,2013-08-06 10:43:00,
2013-08-06 06:52:00,67.0,66.0,30.12,WSW,237,0.0,2.0,95,0.34,,,0.66,,2013-08-06 10:52:00,
2013-08-06 07:02:00,67.0,66.0,30.12,WSW,237,0.0,0.0,95,0.33,,,0.66,,2013-08-06 11:02:00,
2013-08-06 07:11:00,67.0,66.0,30.13,SW,227,0.0,1.0,95,0.26,,,0.66,,2013-08-06 11:11:00,
2013-08-06 07:22:00,67.0,66.0,30.13,SW,228,0.0,1.0,95,0.08,,,0.66,,2013-08-06 11:22:00,
2013-08-06 07:32:00,67.0,66.0,30.14,SW,228,0.0,0.0,95,0.04,,,0.66,,2013-08-06 11:32:00,
2013-08-06 07:43:00,67.0,66.0,30.13,SW,228,0.0,0.0,95,0.04,,,0.66,,2013-08-06 11:43:00,
2013-08-06 07:53:00,67.0,66.0,30.13,SW,228,0.0,1.0,95,0.00,,,0.66,,2013-08-06 11:53:00,
2013-08-06 08:02:00,67.0,66.0,30.14,SW,228,0.0,0.0,95,0.00,,,0.66,,2013-08-06 12:02:00,
2013-08-06 08:11:00,68.0,67.0,30.14,SW,228,0.0,2.0,96,0.00,,,0.66,,2013-08-06 12:11:00,
2013-08-06 08:32:00,68.0,67.0,30.14,SW,228,0.0,1.0,96,0.00,,,0.66,,2013-08-06 12:32:00,
2013-08-06 08:43:00,68.0,67.0,30.15,SW,228,0.0,0.0,96,0.00,,,0.66,,2013-08-06 12:43:00,
2013-08-06 08:52:00,68.0,67.0,30.15,SW,227,0.0,1.0,96,0.00,,,0.66,,2013-08-06 12:52:00,
2013-08-06 09:02:00,68.0,67.0,30.15,SW,228,0.0,1.0,96,0.00,,,0.66,,2013-08-06 13:02:00,
2013-08-06 09:11:00,68.0,67.0,30.16,SW,227,0.0,0.0,96,0.00,,,0.66,,2013-08-06 13:11:00,
2013-08-06 09:42:00,68.0,67.0,30.16,SW,228,0.0,1.0,96,0.00,,,0.66,,2013-08-06 13:42:00,
2013-08-06 09:53:00,68.0,67.0,30.16,SW,228,0.0,0.0,96,0.00,,,0.66,,2013-08-06 13:53:00,
2013-08-06 10:01:00,68.0,67.0,30.16,SW,228,0.0,0.0,96,0.00,,,0.66,,2013-08-06 14:01:00,
2013-08-06 10:11:00,68.0,67.0,30.16,SW,228,0.0,1.0,96,0.00,,,0.66,,2013-08-06 14:11:00,
2013-08-06 10:22:00,68.0,67.0,30.16,SW,227,0.0,1.0,96,0.00,,,0.66,,2013-08-06 14:22:00,
2013-08-06 10:42:00,69.0,68.0,30.16,SW,217,0.0,3.0,95,0.00,,,0.66,,2013-08-06 14:42:00,
2013-08-06 10:53:00,69.0,68.0,30.16,NW,323,0.0,3.0,95,0.00,,,0.66,,2013-08-06 14:53:00,
2013-08-06 11:02:00,69.0,68.0,30.16,NW,321,0.0,1.0,95,0.00,,,0.66,,2013-08-06 15:02:00,
2013-08-06 11:11:00,70.0,68.0,30.16,SSW,207,0.0,1.0,95,0.00,,,0.66,,2013-08-06 15:11:00,
2013-08-06 11:22:00,70.0,68.0,30.17,South,186,0.0,1.0,95,0.00,,,0.66,,2013-08-06 15:22:00,
2013-08-06 11:33:00,70.0,68.0,30.17,SW,234,0.0,3.0,95,0.00,,,0.66,,2013-08-06 15:33:00,
2013-08-06 11:44:00,70.0,68.0,30.17,West,278,0.0,3.0,95,0.00,,,0.66,,2013-08-06 15:44:00,
2013-08-06 11:52:00,70.0,68.0,30.17,SW,224,0.0,4.0,95,0.00,,,0.66,,2013-08-06 15:52:00,
2013-08-06 12:02:00,70.0,68.0,30.16,SW,228,0.0,2.0,95,0.00,,,0.66,,2013-08-06 16:02:00,
2013-08-06 12:11:00,70.0,68.0,30.17,SW,223,0.0,3.0,95,0.00,,,0.66,,2013-08-06 16:11:00,
2013-08-06 12:43:00,71.0,69.0,30.16,WSW,251,0.0,1.0,94,0.00,,,0.66,,2013-08-06 16:43:00,
2013-08-06 12:52:00,71.0,69.0,30.17,SW,223,0.0,3.0,94,0.00,,,0.66,,2013-08-06 16:52:00,
2013-08-06 13:02:00,71.0,69.0,30.16,NW,313,0.0,1.0,94,0.00,,,0.66,,2013-08-06 17:02:00,
2013-08-06 13:11:00,72.0,70.0,30.17,West,261,0.0,3.0,94,0.00,,,0.66,,2013-08-06 17:11:00,
2013-08-06 13:44:00,73.0,71.0,30.16,NNE,18,0.0,2.0,93,0.00,,,0.66,,2013-08-06 17:44:00,
2013-08-06 13:52:00,73.0,71.0,30.15,NNE,18,0.0,1.0,93,0.00,,,0.66,,2013-08-06 17:52:00,
2013-08-06 14:01:00,73.0,71.0,30.15,SSW,211,0.0,5.0,92,0.00,,,0.66,,2013-08-06 18:01:00,
2013-08-06 14:11:00,73.0,71.0,30.15,SW,217,0.0,3.0,92,0.00,,,0.66,,2013-08-06 18:11:00,
2013-08-06 14:22:00,73.0,70.0,30.15,NNE,25,0.0,5.0,91,0.00,,,0.66,,2013-08-06 18:22:00,
2013-08-06 14:32:00,73.0,70.0,30.15,NNE,24,0.0,1.0,91,0.00,,,0.66,,2013-08-06 18:32:00,
2013-08-06 14:43:00,73.0,70.0,30.15,North,5,0.0,2.0,91,0.00,,,0.66,,2013-08-06 18:43:00,
2013-08-06 14:52:00,73.0,70.0,30.15,North,5,0.0,2.0,91,0.00,,,0.66,,2013-08-06 18:52:00,
2013-08-06 15:01:00,73.0,70.0,30.15,North,5,0.0,2.0,91,0.00,,,0.66,,2013-08-06 19:01:00,
2013-08-06 15:11:00,73.0,70.0,30.15,North,5,0.0,2.0,91,0.00,,,0.66,,2013-08-06 19:11:00,
2013-08-06 15:21:00,73.0,70.0,30.15,North,5,0.0,2.0,91,0.00,,,0.66,,2013-08-06 19:21:00,